createdAt,value
2017-02-03T00:00:08.564Z,0
2017-02-03T00:00:49.225Z,0
2017-02-03T00:01:29.924Z,0
2017-02-03T00:02:10.500Z,0
2017-02-03T00:02:51.070Z,0
2017-02-03T00:03:31.735Z,0
2017-02-03T00:04:12.390Z,0
2017-02-03T00:04:53.036Z,0
2017-02-03T00:05:33.687Z,0
2017-02-03T00:06:14.361Z,0
2017-02-03T00:06:55.095Z,0
2017-02-03T00:07:35.746Z,0
2017-02-03T00:08:16.303Z,0
2017-02-03T00:08:56.962Z,0
2017-02-03T00:09:37.607Z,0
2017-02-03T00:10:18.202Z,0
2017-02-03T00:10:58.911Z,0
2017-02-03T00:11:39.564Z,0
2017-02-03T00:12:20.136Z,0
2017-02-03T00:13:01.735Z,0
2017-02-03T00:13:42.453Z,0
2017-02-03T00:14:23.038Z,0
2017-02-03T00:15:03.751Z,0
2017-02-03T00:15:44.405Z,0
2017-02-03T00:16:24.970Z,0
2017-02-03T00:17:05.606Z,0
2017-02-03T00:17:46.270Z,0
2017-02-03T00:18:26.847Z,0
2017-02-03T00:19:07.563Z,0
2017-02-03T00:19:48.209Z,0
2017-02-03T00:20:28.882Z,0
2017-02-03T00:21:09.551Z,0
2017-02-03T00:21:50.288Z,0
2017-02-03T00:22:31.964Z,0
2017-02-03T00:23:12.611Z,0
2017-02-03T00:23:53.256Z,0
2017-02-03T00:24:33.971Z,0
2017-02-03T00:25:14.536Z,0
2017-02-03T00:25:55.110Z,0
2017-02-03T00:26:35.788Z,0
2017-02-03T00:27:16.522Z,0
2017-02-03T00:27:57.228Z,0
2017-02-03T00:28:37.930Z,0
2017-02-03T00:29:18.583Z,0
2017-02-03T00:29:59.267Z,0
2017-02-03T00:30:39.994Z,0
2017-02-03T00:31:20.657Z,0
2017-02-03T00:32:01.297Z,0
2017-02-03T00:32:41.962Z,0
2017-02-03T00:33:22.654Z,0
2017-02-03T00:34:03.208Z,0
2017-02-03T00:34:43.923Z,0
2017-02-03T00:35:24.528Z,0
2017-02-03T00:36:05.142Z,0
2017-02-03T00:36:45.818Z,0
2017-02-03T00:37:26.414Z,0
2017-02-03T00:38:07.121Z,0
2017-02-03T00:38:47.720Z,0
2017-02-03T00:39:28.458Z,0
2017-02-03T00:40:09.028Z,0
2017-02-03T00:40:49.695Z,0
2017-02-03T00:41:30.448Z,0
2017-02-03T00:42:11.141Z,0
2017-02-03T00:42:51.714Z,0
2017-02-03T00:43:32.395Z,0
2017-02-03T00:44:13.157Z,0
2017-02-03T00:44:53.724Z,0
2017-02-03T00:45:34.374Z,0
2017-02-03T00:46:15.122Z,0
2017-02-03T00:46:55.724Z,0
2017-02-03T00:47:36.437Z,0
2017-02-03T00:48:17.208Z,0
2017-02-03T00:48:57.942Z,0
2017-02-03T00:49:38.579Z,0
2017-02-03T00:50:19.234Z,0
2017-02-03T00:50:59.905Z,0
2017-02-03T00:51:40.650Z,0
2017-02-03T00:52:21.409Z,0
2017-02-03T00:53:02.170Z,0
2017-02-03T00:53:42.803Z,0
2017-02-03T00:54:23.467Z,0
2017-02-03T00:55:04.223Z,0
2017-02-03T00:55:44.866Z,0
2017-02-03T00:56:25.530Z,0
2017-02-03T00:57:06.169Z,0
2017-02-03T00:57:46.826Z,0
2017-02-03T00:58:27.524Z,0
2017-02-03T00:59:08.078Z,0
2017-02-03T00:59:49.819Z,0
2017-02-03T01:00:30.561Z,0
2017-02-03T01:01:11.149Z,0
2017-02-03T01:01:51.817Z,0
2017-02-03T01:02:32.367Z,0
2017-02-03T01:03:13.077Z,0
2017-02-03T01:03:53.833Z,0
2017-02-03T01:04:34.532Z,0
2017-02-03T01:05:15.085Z,0
2017-02-03T01:05:55.819Z,0
2017-02-03T01:06:36.548Z,0
2017-02-03T01:07:17.240Z,0
2017-02-03T01:07:57.822Z,0
2017-02-03T01:08:38.498Z,0
2017-02-03T01:09:19.122Z,0
2017-02-03T01:09:59.857Z,0
2017-02-03T01:10:40.428Z,0
2017-02-03T01:11:21.162Z,0
2017-02-03T01:12:01.729Z,0
2017-02-03T01:12:42.423Z,0
2017-02-03T01:13:23.183Z,0
2017-02-03T01:14:03.832Z,0
2017-02-03T01:14:44.587Z,0
2017-02-03T01:15:25.341Z,0
2017-02-03T01:16:05.989Z,0
2017-02-03T01:16:46.653Z,0
2017-02-03T01:17:27.409Z,0
2017-02-03T01:18:08.158Z,0
2017-02-03T01:18:48.811Z,0
2017-02-03T01:19:29.469Z,0
2017-02-03T01:20:10.221Z,0
2017-02-03T01:20:50.874Z,0
2017-02-03T01:21:31.526Z,0
2017-02-03T01:22:12.295Z,0
2017-02-03T01:22:53.056Z,0
2017-02-03T01:23:33.731Z,0
2017-02-03T01:24:14.289Z,0
2017-02-03T01:24:54.859Z,0
2017-02-03T01:25:35.554Z,0
2017-02-03T01:26:16.241Z,0
2017-02-03T01:26:56.800Z,0
2017-02-03T01:27:37.504Z,0
2017-02-03T01:28:18.178Z,0
2017-02-03T01:28:59.017Z,0
2017-02-03T01:29:39.669Z,0
2017-02-03T01:30:20.326Z,0
2017-02-03T01:31:01.080Z,0
2017-02-03T01:31:41.846Z,0
2017-02-03T01:32:22.599Z,0
2017-02-03T01:33:03.346Z,0
2017-02-03T01:33:44.100Z,0
2017-02-03T01:34:24.851Z,0
2017-02-03T01:35:05.511Z,0
2017-02-03T01:35:46.265Z,0
2017-02-03T01:36:27.940Z,0
2017-02-03T01:37:08.707Z,0
2017-02-03T01:37:49.356Z,0
2017-02-03T01:38:30.110Z,0
2017-02-03T01:39:10.862Z,0
2017-02-03T01:39:51.514Z,0
2017-02-03T01:40:32.164Z,0
2017-02-03T01:41:12.928Z,0
2017-02-03T01:41:53.672Z,0
2017-02-03T01:42:34.339Z,0
2017-02-03T01:43:15.096Z,0
2017-02-03T01:43:56.752Z,0
2017-02-03T01:44:37.507Z,0
2017-02-03T01:45:18.175Z,0
2017-02-03T01:45:58.930Z,0
2017-02-03T01:46:39.691Z,0
2017-02-03T01:47:20.439Z,0
2017-02-03T01:48:01.184Z,0
2017-02-03T01:48:42.867Z,0
2017-02-03T01:49:23.635Z,0
2017-02-03T01:50:04.389Z,0
2017-02-03T01:50:45.125Z,0
2017-02-03T01:51:25.798Z,0
2017-02-03T01:52:06.552Z,0
2017-02-03T01:52:47.307Z,0
2017-02-03T01:53:27.990Z,0
2017-02-03T01:54:08.573Z,0
2017-02-03T01:54:49.152Z,0
2017-02-03T01:55:29.821Z,0
2017-02-03T01:56:10.499Z,0
2017-02-03T01:56:51.069Z,0
2017-02-03T01:57:31.652Z,0
2017-02-03T01:58:12.330Z,0
2017-02-03T01:58:53.687Z,0
2017-02-03T01:59:34.337Z,0
2017-02-03T02:00:14.999Z,0
2017-02-03T02:00:55.654Z,0
2017-02-03T02:01:36.293Z,0
2017-02-03T02:02:16.947Z,0
2017-02-03T02:02:57.611Z,0
2017-02-03T02:03:38.182Z,0
2017-02-03T02:04:18.828Z,0
2017-02-03T02:04:59.467Z,0
2017-02-03T02:05:40.035Z,0
2017-02-03T02:06:20.667Z,0
2017-02-03T02:07:01.339Z,0
2017-02-03T02:07:41.914Z,0
2017-02-03T02:08:22.530Z,0
2017-02-03T02:09:03.172Z,0
2017-02-03T02:09:43.770Z,0
2017-02-03T02:10:24.344Z,0
2017-02-03T02:11:04.923Z,0
2017-02-03T02:11:45.590Z,0
2017-02-03T02:12:26.278Z,0
2017-02-03T02:13:06.851Z,0
2017-02-03T02:13:47.447Z,0
2017-02-03T02:14:28.097Z,0
2017-02-03T02:15:08.752Z,0
2017-02-03T02:15:49.393Z,0
2017-02-03T02:16:30.057Z,0
2017-02-03T02:17:10.711Z,0
2017-02-03T02:17:51.362Z,0
2017-02-03T02:18:32.046Z,0
2017-02-03T02:19:12.625Z,0
2017-02-03T02:19:53.217Z,0
2017-02-03T02:20:33.860Z,0
2017-02-03T02:21:14.483Z,0
2017-02-03T02:21:55.052Z,0
2017-02-03T02:22:35.643Z,0
2017-02-03T02:23:16.299Z,0
2017-02-03T02:23:56.943Z,0
2017-02-03T02:24:38.528Z,0
2017-02-03T02:25:19.178Z,0
2017-02-03T02:25:59.832Z,0
2017-02-03T02:26:40.508Z,0
2017-02-03T02:27:21.147Z,0
2017-02-03T02:28:01.784Z,0
2017-02-03T02:28:42.438Z,0
2017-02-03T02:29:23.092Z,0
2017-02-03T02:30:03.746Z,0
2017-02-03T02:30:44.400Z,0
2017-02-03T02:31:26.116Z,0
2017-02-03T02:32:06.731Z,0
2017-02-03T02:32:47.383Z,0
2017-02-03T02:33:28.039Z,0
2017-02-03T02:34:08.697Z,0
2017-02-03T02:34:50.365Z,0
2017-02-03T02:35:32.045Z,0
2017-02-03T02:36:13.740Z,0
2017-02-03T02:36:54.369Z,0
2017-02-03T02:37:36.996Z,0
2017-02-03T02:38:17.619Z,0
2017-02-03T02:38:58.183Z,0
2017-02-03T02:39:38.823Z,0
2017-02-03T02:40:19.477Z,0
2017-02-03T02:41:00.044Z,0
2017-02-03T02:41:40.706Z,0
2017-02-03T02:42:21.330Z,0
2017-02-03T02:43:01.902Z,0
2017-02-03T02:43:42.534Z,0
2017-02-03T02:44:23.189Z,0
2017-02-03T02:45:03.841Z,0
2017-02-03T02:45:44.481Z,0
2017-02-03T02:46:25.152Z,0
2017-02-03T02:47:05.797Z,0
2017-02-03T02:47:46.443Z,0
2017-02-03T02:48:27.107Z,0
2017-02-03T02:49:09.708Z,0
2017-02-03T02:49:50.299Z,0
2017-02-03T02:50:30.846Z,0
2017-02-03T02:51:11.447Z,0
2017-02-03T02:51:52.108Z,0
2017-02-03T02:52:32.705Z,0
2017-02-03T02:53:13.253Z,0
2017-02-03T02:53:53.857Z,0
2017-02-03T02:54:34.518Z,0
2017-02-03T02:55:15.107Z,0
2017-02-03T02:55:55.672Z,0
2017-02-03T02:56:36.273Z,0
2017-02-03T02:57:16.922Z,0
2017-02-03T02:57:57.509Z,0
2017-02-03T02:58:38.082Z,0
2017-02-03T02:59:18.670Z,0
2017-02-03T02:59:59.327Z,0
2017-02-03T03:00:39.925Z,0
2017-02-03T03:01:20.512Z,0
2017-02-03T03:02:02.109Z,0
2017-02-03T03:02:42.699Z,0
2017-02-03T03:03:23.263Z,0
2017-02-03T03:04:03.859Z,0
2017-02-03T03:04:44.511Z,0
2017-02-03T03:05:25.159Z,0
2017-02-03T03:06:05.824Z,0
2017-02-03T03:06:47.492Z,0
2017-02-03T03:07:28.165Z,0
2017-02-03T03:08:08.801Z,0
2017-02-03T03:08:49.476Z,0
2017-02-03T03:09:30.106Z,0
2017-02-03T03:10:10.701Z,0
2017-02-03T03:10:51.303Z,0
2017-02-03T03:11:31.960Z,0
2017-02-03T03:12:12.634Z,0
2017-02-03T03:12:53.313Z,0
2017-02-03T03:13:33.875Z,0
2017-02-03T03:14:14.465Z,0
2017-02-03T03:14:55.126Z,0
2017-02-03T03:15:35.780Z,0
2017-02-03T03:16:16.440Z,0
2017-02-03T03:16:57.104Z,0
2017-02-03T03:17:37.753Z,0
2017-02-03T03:18:18.396Z,0
2017-02-03T03:18:59.058Z,0
2017-02-03T03:19:39.746Z,0
2017-02-03T03:20:20.313Z,0
2017-02-03T03:21:00.950Z,0
2017-02-03T03:21:41.508Z,0
2017-02-03T03:22:23.165Z,0
2017-02-03T03:23:04.811Z,0
2017-02-03T03:23:45.394Z,0
2017-02-03T03:24:25.982Z,0
2017-02-03T03:25:07.599Z,0
2017-02-03T03:25:48.240Z,0
2017-02-03T03:26:28.837Z,0
2017-02-03T03:27:09.399Z,0
2017-02-03T03:27:51.056Z,0
2017-02-03T03:28:31.662Z,0
2017-02-03T03:29:14.258Z,0
2017-02-03T03:29:54.911Z,0
2017-02-03T03:30:36.610Z,0
2017-02-03T03:31:17.256Z,0
2017-02-03T03:31:57.909Z,0
2017-02-03T03:32:38.569Z,0
2017-02-03T03:33:19.220Z,0
2017-02-03T03:33:59.869Z,0
2017-02-03T03:34:40.447Z,0
2017-02-03T03:35:21.060Z,0
2017-02-03T03:36:01.649Z,0
2017-02-03T03:36:42.277Z,0
2017-02-03T03:37:22.932Z,0
2017-02-03T03:38:03.506Z,0
2017-02-03T03:38:44.057Z,0
2017-02-03T03:39:24.684Z,0
2017-02-03T03:40:05.259Z,0
2017-02-03T03:40:45.872Z,0
2017-02-03T03:41:27.558Z,0
2017-02-03T03:42:08.141Z,0
2017-02-03T03:42:49.799Z,0
2017-02-03T03:43:30.438Z,0
2017-02-03T03:44:11.092Z,0
2017-02-03T03:44:51.753Z,0
2017-02-03T03:45:32.444Z,0
2017-02-03T03:46:13.093Z,0
2017-02-03T03:46:53.745Z,0
2017-02-03T03:47:34.404Z,0
2017-02-03T03:48:15.051Z,0
2017-02-03T03:48:55.640Z,0
2017-02-03T03:49:36.327Z,0
2017-02-03T03:50:16.973Z,0
2017-02-03T03:50:58.681Z,0
2017-02-03T03:51:39.273Z,0
2017-02-03T03:52:19.959Z,0
2017-02-03T03:53:00.614Z,0
2017-02-03T03:53:41.198Z,0
2017-02-03T03:54:21.856Z,0
2017-02-03T03:55:02.507Z,0
2017-02-03T03:55:43.154Z,0
2017-02-03T03:56:23.812Z,0
2017-02-03T03:57:04.459Z,0
2017-02-03T03:57:45.119Z,0
2017-02-03T03:58:25.769Z,0
2017-02-03T03:59:06.422Z,0
2017-02-03T03:59:47.076Z,0
2017-02-03T04:00:28.755Z,0
2017-02-03T04:01:09.332Z,0
2017-02-03T04:01:49.920Z,0
2017-02-03T04:02:31.585Z,0
2017-02-03T04:03:12.243Z,0
2017-02-03T04:03:52.832Z,0
2017-02-03T04:04:33.392Z,0
2017-02-03T04:05:14.015Z,0
2017-02-03T04:05:54.649Z,0
2017-02-03T04:06:36.266Z,0
2017-02-03T04:07:16.824Z,0
2017-02-03T04:07:57.450Z,0
2017-02-03T04:08:38.074Z,0
2017-02-03T04:09:19.697Z,0
2017-02-03T04:10:00.260Z,0
2017-02-03T04:10:40.888Z,0
2017-02-03T04:11:21.516Z,0
2017-02-03T04:12:02.105Z,0
2017-02-03T04:12:42.663Z,0
2017-02-03T04:13:23.291Z,0
2017-02-03T04:14:03.936Z,0
2017-02-03T04:14:44.579Z,0
2017-02-03T04:15:25.152Z,0
2017-02-03T04:16:05.795Z,0
2017-02-03T04:16:46.357Z,0
2017-02-03T04:17:26.995Z,0
2017-02-03T04:18:07.632Z,0
2017-02-03T04:18:48.286Z,0
2017-02-03T04:19:28.945Z,0
2017-02-03T04:20:09.531Z,0
2017-02-03T04:20:50.110Z,0
2017-02-03T04:21:30.657Z,0
2017-02-03T04:22:11.235Z,0
2017-02-03T04:22:51.808Z,0
2017-02-03T04:23:33.464Z,0
2017-02-03T04:24:14.131Z,0
2017-02-03T04:24:54.784Z,0
2017-02-03T04:25:35.432Z,0
2017-02-03T04:26:16.004Z,0
2017-02-03T04:26:56.642Z,0
2017-02-03T04:27:37.287Z,0
2017-02-03T04:28:17.948Z,0
2017-02-03T04:28:58.594Z,0
2017-02-03T04:29:39.248Z,0
2017-02-03T04:30:20.929Z,0
2017-02-03T04:31:01.583Z,0
2017-02-03T04:31:42.230Z,0
2017-02-03T04:32:22.886Z,0
2017-02-03T04:33:03.547Z,0
2017-02-03T04:33:44.200Z,0
2017-02-03T04:34:24.838Z,0
2017-02-03T04:35:05.505Z,0
2017-02-03T04:35:46.141Z,0
2017-02-03T04:36:26.813Z,0
2017-02-03T04:37:07.446Z,0
2017-02-03T04:37:48.015Z,0
2017-02-03T04:38:28.657Z,0
2017-02-03T04:39:09.317Z,0
2017-02-03T04:39:50.006Z,0
2017-02-03T04:40:30.568Z,0
2017-02-03T04:41:11.155Z,0
2017-02-03T04:41:51.715Z,0
2017-02-03T04:42:32.296Z,0
2017-02-03T04:43:12.921Z,0
2017-02-03T04:43:53.512Z,0
2017-02-03T04:44:34.064Z,0
2017-02-03T04:45:14.695Z,0
2017-02-03T04:45:55.321Z,0
2017-02-03T04:46:35.922Z,0
2017-02-03T04:47:16.490Z,0
2017-02-03T04:47:57.100Z,0
2017-02-03T04:48:37.732Z,0
2017-02-03T04:49:18.356Z,0
2017-02-03T04:49:58.895Z,0
2017-02-03T04:50:39.484Z,0
2017-02-03T04:51:20.165Z,0
2017-02-03T04:52:00.736Z,0
2017-02-03T04:52:41.301Z,0
2017-02-03T04:53:21.902Z,0
2017-02-03T04:54:02.562Z,0
2017-02-03T04:54:43.210Z,0
2017-02-03T04:55:23.790Z,0
2017-02-03T04:56:04.403Z,0
2017-02-03T04:56:45.075Z,0
2017-02-03T04:57:25.707Z,0
2017-02-03T04:58:06.371Z,0
2017-02-03T04:58:47.015Z,0
2017-02-03T04:59:27.612Z,0
2017-02-03T05:00:08.167Z,0
2017-02-03T05:00:48.773Z,0
2017-02-03T05:01:29.427Z,0
2017-02-03T05:02:10.120Z,0
2017-02-03T05:02:50.691Z,0
2017-02-03T05:03:31.283Z,0
2017-02-03T05:04:11.931Z,0
2017-02-03T05:04:52.592Z,0
2017-02-03T05:05:33.236Z,0
2017-02-03T05:06:13.809Z,0
2017-02-03T05:06:54.453Z,0
2017-02-03T05:07:35.101Z,0
2017-02-03T05:08:15.756Z,0
2017-02-03T05:08:56.444Z,0
2017-02-03T05:09:37.014Z,0
2017-02-03T05:10:18.633Z,0
2017-02-03T05:10:59.289Z,0
2017-02-03T05:11:39.877Z,0
2017-02-03T05:12:20.443Z,0
2017-02-03T05:13:02.065Z,0
2017-02-03T05:13:42.719Z,0
2017-02-03T05:14:23.370Z,0
2017-02-03T05:15:04.023Z,0
2017-02-03T05:15:44.674Z,0
2017-02-03T05:16:25.325Z,0
2017-02-03T05:17:05.893Z,0
2017-02-03T05:17:46.534Z,0
2017-02-03T05:18:28.195Z,0
2017-02-03T05:19:08.771Z,0
2017-02-03T05:19:49.410Z,0
2017-02-03T05:20:30.066Z,0
2017-02-03T05:21:10.645Z,0
2017-02-03T05:21:52.293Z,0
2017-02-03T05:22:33.972Z,0
2017-02-03T05:23:14.543Z,0
2017-02-03T05:23:55.186Z,0
2017-02-03T05:24:35.824Z,0
2017-02-03T05:25:16.477Z,0
2017-02-03T05:25:57.133Z,0
2017-02-03T05:26:37.786Z,0
2017-02-03T05:27:18.439Z,0
2017-02-03T05:27:59.094Z,0
2017-02-03T05:28:39.743Z,0
2017-02-03T05:29:20.329Z,0
2017-02-03T05:30:00.901Z,0
2017-02-03T05:30:41.509Z,0
2017-02-03T05:31:22.147Z,0
2017-02-03T05:32:02.744Z,0
2017-02-03T05:32:43.314Z,0
2017-02-03T05:33:23.915Z,0
2017-02-03T05:34:04.556Z,0
2017-02-03T05:34:45.220Z,0
2017-02-03T05:35:25.867Z,0
2017-02-03T05:36:06.453Z,0
2017-02-03T05:36:47.015Z,0
2017-02-03T05:37:27.627Z,0
2017-02-03T05:38:08.280Z,0
2017-02-03T05:38:48.933Z,0
2017-02-03T05:39:29.587Z,0
2017-02-03T05:40:10.237Z,0
2017-02-03T05:40:50.905Z,0
2017-02-03T05:41:31.543Z,0
2017-02-03T05:42:12.115Z,0
2017-02-03T05:42:53.760Z,0
2017-02-03T05:43:34.424Z,0
2017-02-03T05:44:15.118Z,0
2017-02-03T05:44:55.691Z,0
2017-02-03T05:45:36.282Z,0
2017-02-03T05:46:16.931Z,0
2017-02-03T05:46:57.523Z,0
2017-02-03T05:47:38.120Z,0
2017-02-03T05:48:18.780Z,0
2017-02-03T05:48:59.441Z,0
2017-02-03T05:49:40.093Z,0
2017-02-03T05:50:20.748Z,0
2017-02-03T05:51:01.401Z,0
2017-02-03T05:51:42.055Z,0
2017-02-03T05:52:22.694Z,0
2017-02-03T05:53:03.279Z,0
2017-02-03T05:53:43.913Z,0
2017-02-03T05:54:25.593Z,0
2017-02-03T05:55:06.241Z,0
2017-02-03T05:55:46.892Z,0
2017-02-03T05:56:27.547Z,0
2017-02-03T05:57:08.199Z,0
2017-02-03T05:57:48.853Z,0
2017-02-03T05:58:29.487Z,0
2017-02-03T05:59:10.144Z,0
2017-02-03T05:59:50.805Z,0
2017-02-03T06:00:31.396Z,0
2017-02-03T06:01:11.947Z,0
2017-02-03T06:01:52.566Z,0
2017-02-03T06:02:33.216Z,0
2017-02-03T06:03:13.805Z,0
2017-02-03T06:03:54.360Z,0
2017-02-03T06:04:34.960Z,0
2017-02-03T06:05:15.622Z,0
2017-02-03T06:05:56.288Z,0
2017-02-03T06:06:37.948Z,0
2017-02-03T06:07:18.590Z,0
2017-02-03T06:07:59.263Z,0
2017-02-03T06:08:40.929Z,0
2017-02-03T06:09:21.591Z,0
2017-02-03T06:10:02.250Z,0
2017-02-03T06:10:42.878Z,0
2017-02-03T06:11:23.531Z,0
2017-02-03T06:12:04.198Z,0
2017-02-03T06:12:44.858Z,0
2017-02-03T06:13:25.415Z,0
2017-02-03T06:14:06.086Z,0
2017-02-03T06:14:47.722Z,0
2017-02-03T06:15:29.415Z,0
2017-02-03T06:16:10.069Z,0
2017-02-03T06:16:50.705Z,0
2017-02-03T06:17:31.372Z,0
2017-02-03T06:18:12.022Z,0
2017-02-03T06:18:53.702Z,0
2017-02-03T06:19:35.359Z,0
2017-02-03T06:20:16.027Z,0
2017-02-03T06:20:56.601Z,0
2017-02-03T06:21:37.269Z,0
2017-02-03T06:22:17.879Z,0
2017-02-03T06:22:58.535Z,0
2017-02-03T06:23:39.196Z,0
2017-02-03T06:24:19.767Z,0
2017-02-03T06:25:00.396Z,0
2017-02-03T06:25:41.053Z,0
2017-02-03T06:26:21.638Z,0
2017-02-03T06:27:02.253Z,0
2017-02-03T06:27:42.811Z,0
2017-02-03T06:28:24.490Z,0
2017-02-03T06:29:05.069Z,0
2017-02-03T06:29:46.709Z,0
2017-02-03T06:30:27.358Z,0
2017-02-03T06:31:08.012Z,0
2017-02-03T06:31:48.666Z,0
2017-02-03T06:32:29.317Z,0
2017-02-03T06:33:09.974Z,0
2017-02-03T06:33:50.628Z,0
2017-02-03T06:34:31.209Z,0
2017-02-03T06:35:11.806Z,0
2017-02-03T06:35:52.362Z,0
2017-02-03T06:36:33.043Z,0
2017-02-03T06:37:13.718Z,0
2017-02-03T06:37:54.298Z,0
2017-02-03T06:38:34.887Z,0
2017-02-03T06:39:15.541Z,0
2017-02-03T06:39:56.191Z,0
2017-02-03T06:40:36.849Z,0
2017-02-03T06:41:18.546Z,0
2017-02-03T06:41:59.179Z,0
2017-02-03T06:42:40.879Z,0
2017-02-03T06:43:21.502Z,0
2017-02-03T06:44:02.151Z,0
2017-02-03T06:44:42.842Z,0
2017-02-03T06:45:23.462Z,0
2017-02-03T06:46:04.121Z,0
2017-02-03T06:46:44.781Z,0
2017-02-03T06:47:25.425Z,0
2017-02-03T06:48:06.073Z,0
2017-02-03T06:48:46.665Z,0
2017-02-03T06:49:27.227Z,0
2017-02-03T06:50:07.830Z,0
2017-02-03T06:50:49.506Z,0
2017-02-03T06:51:30.210Z,0
2017-02-03T06:52:10.778Z,0
2017-02-03T06:52:51.458Z,0
2017-02-03T06:53:33.150Z,0
2017-02-03T06:54:13.728Z,0
2017-02-03T06:54:54.291Z,0
2017-02-03T06:55:34.891Z,0
2017-02-03T06:56:15.553Z,0
2017-02-03T06:56:56.244Z,0
2017-02-03T06:57:36.826Z,0
2017-02-03T06:58:18.541Z,0
2017-02-03T06:58:59.191Z,0
2017-02-03T06:59:39.845Z,0
2017-02-03T07:00:20.498Z,0
2017-02-03T07:01:01.064Z,0
2017-02-03T07:01:41.687Z,0
2017-02-03T07:02:22.360Z,0
2017-02-03T07:03:03.023Z,0
2017-02-03T07:03:43.751Z,0
2017-02-03T07:04:24.443Z,0
2017-02-03T07:05:05.036Z,0
2017-02-03T07:05:45.712Z,0
2017-02-03T07:06:26.379Z,0
2017-02-03T07:07:07.055Z,0
2017-02-03T07:07:47.638Z,0
2017-02-03T07:08:28.338Z,0
2017-02-03T07:09:10.015Z,0
2017-02-03T07:09:52.770Z,0
2017-02-03T07:10:33.328Z,0
2017-02-03T07:11:15.032Z,0
2017-02-03T07:11:56.702Z,0
2017-02-03T07:12:37.402Z,0
2017-02-03T07:13:17.959Z,0
2017-02-03T07:13:58.668Z,0
2017-02-03T07:14:45.165Z,5
2017-02-03T07:15:25.748Z,5
2017-02-03T07:16:06.407Z,5
2017-02-03T07:16:47.060Z,5
2017-02-03T07:17:27.703Z,5
2017-02-03T07:18:08.355Z,5
2017-02-03T07:18:49.007Z,5
2017-02-03T07:19:29.678Z,5
2017-02-03T07:20:10.323Z,5
2017-02-03T07:20:50.978Z,5
2017-02-03T07:21:31.639Z,5
2017-02-03T07:22:12.276Z,5
2017-02-03T07:22:52.930Z,5
2017-02-03T07:23:33.684Z,5
2017-02-03T07:24:14.333Z,10
2017-02-03T07:24:54.996Z,10
2017-02-03T07:25:35.649Z,10
2017-02-03T07:26:16.301Z,10
2017-02-03T07:26:56.957Z,10
2017-02-03T07:27:37.600Z,10
2017-02-03T07:28:19.727Z,10
2017-02-03T07:29:00.338Z,10
2017-02-03T07:29:43.220Z,10
2017-02-03T07:30:23.866Z,10
2017-02-03T07:31:04.521Z,10
2017-02-03T07:31:45.507Z,10
2017-02-03T07:32:26.138Z,10
2017-02-03T07:33:06.776Z,10
2017-02-03T07:33:47.431Z,10
2017-02-03T07:34:28.103Z,10
2017-02-03T07:35:08.740Z,10
2017-02-03T07:35:49.396Z,10
2017-02-03T07:36:29.959Z,10
2017-02-03T07:37:10.602Z,10
2017-02-03T07:37:51.342Z,10
2017-02-03T07:38:32.049Z,10
2017-02-03T07:39:12.667Z,10
2017-02-03T07:39:53.312Z,10
2017-02-03T07:40:33.956Z,10
2017-02-03T07:41:14.620Z,10
2017-02-03T07:41:55.273Z,10
2017-02-03T07:42:35.926Z,10
2017-02-03T07:43:16.585Z,10
2017-02-03T07:43:57.222Z,10
2017-02-03T07:44:37.824Z,10
2017-02-03T07:45:18.537Z,10
2017-02-03T07:45:59.180Z,10
2017-02-03T07:46:39.886Z,10
2017-02-03T07:47:20.432Z,10
2017-02-03T07:48:01.131Z,10
2017-02-03T07:48:41.786Z,10
2017-02-03T07:49:22.371Z,10
2017-02-03T07:50:03.097Z,10
2017-02-03T07:50:43.772Z,10
2017-02-03T07:51:24.333Z,10
2017-02-03T07:52:05.068Z,10
2017-02-03T07:52:45.714Z,10
2017-02-03T07:53:26.289Z,10
2017-02-03T07:54:07.953Z,10
2017-02-03T07:54:48.586Z,10
2017-02-03T07:55:29.241Z,10
2017-02-03T07:56:09.893Z,10
2017-02-03T07:56:50.553Z,10
2017-02-03T07:57:31.413Z,10
2017-02-03T07:58:12.069Z,10
2017-02-03T07:58:52.718Z,10
2017-02-03T07:59:33.286Z,10
2017-02-03T08:00:13.912Z,10
2017-02-03T08:00:54.563Z,15
2017-02-03T08:01:35.125Z,15
2017-02-03T08:02:16.805Z,15
2017-02-03T08:02:57.456Z,15
2017-02-03T08:03:38.030Z,15
2017-02-03T08:04:18.646Z,20
2017-02-03T08:04:59.308Z,20
2017-02-03T08:05:40.071Z,20
2017-02-03T08:06:20.812Z,25
2017-02-03T08:07:01.485Z,25
2017-02-03T08:07:42.124Z,30
2017-02-03T08:08:22.882Z,30
2017-02-03T08:09:03.706Z,30
2017-02-03T08:09:44.443Z,35
2017-02-03T08:10:25.015Z,35
2017-02-03T08:11:06.730Z,35
2017-02-03T08:11:47.485Z,40
2017-02-03T08:12:28.054Z,40
2017-02-03T08:13:09.693Z,45
2017-02-03T08:13:50.366Z,45
2017-02-03T08:14:33.098Z,45
2017-02-03T08:15:13.666Z,45
2017-02-03T08:15:54.371Z,40
2017-02-03T08:16:35.004Z,40
2017-02-03T08:17:15.714Z,35
2017-02-03T08:17:56.281Z,35
2017-02-03T08:18:37.048Z,35
2017-02-03T08:19:18.762Z,40
2017-02-03T08:19:59.347Z,40
2017-02-03T08:20:39.927Z,45
2017-02-03T08:21:21.631Z,45
2017-02-03T08:22:07.097Z,50
2017-02-03T08:22:47.692Z,45
2017-02-03T08:23:28.273Z,45
2017-02-03T08:24:08.968Z,40
2017-02-03T08:24:49.531Z,35
2017-02-03T08:25:30.265Z,35
2017-02-03T08:26:10.921Z,35
2017-02-03T08:26:52.592Z,35
2017-02-03T08:27:33.251Z,30
2017-02-03T08:28:13.911Z,30
2017-02-03T08:28:55.581Z,30
2017-02-03T08:29:36.227Z,30
2017-02-03T08:30:16.885Z,30
2017-02-03T08:30:57.628Z,30
2017-02-03T08:31:38.285Z,30
2017-02-03T08:32:18.947Z,30
2017-02-03T08:32:59.615Z,30
2017-02-03T08:33:40.245Z,30
2017-02-03T08:34:20.900Z,30
2017-02-03T08:35:02.576Z,35
2017-02-03T08:35:43.234Z,35
2017-02-03T08:36:23.885Z,40
2017-02-03T08:37:04.581Z,40
2017-02-03T08:37:45.295Z,45
2017-02-03T08:38:25.944Z,45
2017-02-03T08:39:06.603Z,45
2017-02-03T08:39:47.258Z,45
2017-02-03T08:40:27.898Z,50
2017-02-03T08:41:08.547Z,45
2017-02-03T08:41:49.226Z,45
2017-02-03T08:42:29.869Z,45
2017-02-03T08:43:10.517Z,45
2017-02-03T08:43:51.170Z,45
2017-02-03T08:44:31.758Z,40
2017-02-03T08:45:12.336Z,45
2017-02-03T08:45:52.931Z,45
2017-02-03T08:46:33.583Z,45
2017-02-03T08:47:14.269Z,45
2017-02-03T08:47:54.831Z,50
2017-02-03T08:48:35.424Z,50
2017-02-03T08:49:16.079Z,50
2017-02-03T08:49:56.648Z,55
2017-02-03T08:50:37.288Z,55
2017-02-03T08:51:17.948Z,55
2017-02-03T08:51:58.533Z,60
2017-02-03T08:52:39.149Z,60
2017-02-03T08:53:19.794Z,60
2017-02-03T08:54:00.343Z,60
2017-02-03T08:54:41.000Z,60
2017-02-03T08:55:21.651Z,55
2017-02-03T08:56:03.267Z,55
2017-02-03T08:56:43.906Z,55
2017-02-03T08:57:24.526Z,55
2017-02-03T08:58:06.129Z,60
2017-02-03T08:58:46.752Z,65
2017-02-03T08:59:28.317Z,65
2017-02-03T09:00:08.885Z,70
2017-02-03T09:00:49.480Z,65
2017-02-03T09:01:30.069Z,65
2017-02-03T09:02:10.756Z,65
2017-02-03T09:02:52.425Z,65
2017-02-03T09:03:34.037Z,70
2017-02-03T09:04:14.598Z,70
2017-02-03T09:04:56.237Z,70
2017-02-03T09:05:37.904Z,70
2017-02-03T09:06:19.572Z,70
2017-02-03T09:07:01.198Z,65
2017-02-03T09:07:41.843Z,60
2017-02-03T09:08:22.502Z,55
2017-02-03T09:09:03.239Z,60
2017-02-03T09:09:43.908Z,55
2017-02-03T09:10:24.487Z,55
2017-02-03T09:11:05.070Z,60
2017-02-03T09:11:45.724Z,60
2017-02-03T09:12:26.312Z,60
2017-02-03T09:13:06.868Z,60
2017-02-03T09:13:47.489Z,60
2017-02-03T09:14:28.151Z,55
2017-02-03T09:15:08.772Z,45
2017-02-03T09:15:49.432Z,40
2017-02-03T09:16:30.082Z,40
2017-02-03T09:17:11.771Z,35
2017-02-03T09:17:52.444Z,35
2017-02-03T09:18:33.092Z,35
2017-02-03T09:19:13.724Z,35
2017-02-03T09:19:54.373Z,35
2017-02-03T09:20:35.961Z,35
2017-02-03T09:21:18.561Z,35
2017-02-03T09:21:59.189Z,35
2017-02-03T09:22:39.852Z,35
2017-02-03T09:23:20.504Z,35
2017-02-03T09:24:03.102Z,35
2017-02-03T09:24:44.787Z,40
2017-02-03T09:25:25.461Z,40
2017-02-03T09:26:06.078Z,40
2017-02-03T09:26:46.737Z,40
2017-02-03T09:27:28.307Z,40
2017-02-03T09:28:08.962Z,40
2017-02-03T09:28:49.641Z,35
2017-02-03T09:29:30.281Z,35
2017-02-03T09:30:10.849Z,35
2017-02-03T09:30:51.474Z,35
2017-02-03T09:31:34.110Z,35
2017-02-03T09:32:14.657Z,30
2017-02-03T09:32:55.279Z,30
2017-02-03T09:33:35.929Z,30
2017-02-03T09:34:16.495Z,30
2017-02-03T09:34:57.141Z,30
2017-02-03T09:35:37.708Z,30
2017-02-03T09:36:18.352Z,30
2017-02-03T09:36:58.991Z,30
2017-02-03T09:37:40.262Z,30
2017-02-03T09:38:21.828Z,30
2017-02-03T09:39:02.492Z,30
2017-02-03T09:39:43.032Z,30
2017-02-03T09:40:23.686Z,30
2017-02-03T09:41:04.342Z,30
2017-02-03T09:41:44.931Z,30
2017-02-03T09:42:25.490Z,30
2017-02-03T09:43:06.087Z,30
2017-02-03T09:43:46.743Z,35
2017-02-03T09:44:27.951Z,35
2017-02-03T09:45:08.525Z,35
2017-02-03T09:45:49.112Z,35
2017-02-03T09:46:30.801Z,35
2017-02-03T09:47:11.514Z,35
2017-02-03T09:47:52.040Z,40
2017-02-03T09:48:32.596Z,40
2017-02-03T09:49:13.213Z,45
2017-02-03T09:49:53.789Z,45
2017-02-03T09:50:34.448Z,50
2017-02-03T09:51:15.103Z,50
2017-02-03T09:51:57.699Z,55
2017-02-03T09:52:38.351Z,55
2017-02-03T09:53:23.814Z,60
2017-02-03T09:54:04.464Z,60
2017-02-03T09:54:45.120Z,65
2017-02-03T09:55:26.759Z,65
2017-02-03T09:56:08.437Z,65
2017-02-03T09:56:49.104Z,65